sensor_id;sensor_type;location;lat;lon;timestamp;temperature;humidity
15967;DHT22;15175;48.154;11.534;2023-12-14T00:03:26;6.60;99.90
15967;DHT22;15175;48.154;11.534;2023-12-14T00:09:30;6.60;99.90
15967;DHT22;15175;48.154;11.534;2023-12-14T00:15:32;6.60;99.90
15967;DHT22;15175;48.154;11.534;2023-12-14T00:21:34;6.60;99.90
15967;DHT22;15175;48.154;11.534;2023-12-14T00:27:38;6.60;99.90
15967;DHT22;15175;48.154;11.534;2023-12-14T00:33:40;6.60;99.90
15967;DHT22;15175;48.154;11.534;2023-12-14T00:39:42;6.60;99.90
15967;DHT22;15175;48.154;11.534;2023-12-14T00:45:46;6.60;99.90
15967;DHT22;15175;48.154;11.534;2023-12-14T00:51:48;6.60;99.90
15967;DHT22;15175;48.154;11.534;2023-12-14T00:57:50;6.60;99.90
15967;DHT22;15175;48.154;11.534;2023-12-14T01:03:54;6.60;99.90
15967;DHT22;15175;48.154;11.534;2023-12-14T01:09:56;6.50;99.90
15967;DHT22;15175;48.154;11.534;2023-12-14T01:15:58;6.50;99.90
15967;DHT22;15175;48.154;11.534;2023-12-14T01:22:01;6.50;99.90
15967;DHT22;15175;48.154;11.534;2023-12-14T01:28:03;6.50;99.90
15967;DHT22;15175;48.154;11.534;2023-12-14T01:34:05;6.50;99.90
15967;DHT22;15175;48.154;11.534;2023-12-14T01:40:10;6.50;99.90
15967;DHT22;15175;48.154;11.534;2023-12-14T01:46:12;6.50;99.90
15967;DHT22;15175;48.154;11.534;2023-12-14T01:52:15;6.50;99.90
15967;DHT22;15175;48.154;11.534;2023-12-14T01:58:20;6.40;99.90
15967;DHT22;15175;48.154;11.534;2023-12-14T02:04:24;6.40;99.90
15967;DHT22;15175;48.154;11.534;2023-12-14T02:10:26;6.30;99.90
15967;DHT22;15175;48.154;11.534;2023-12-14T02:16:30;6.30;99.90
15967;DHT22;15175;48.154;11.534;2023-12-14T02:28:53;6.20;99.90
15967;DHT22;15175;48.154;11.534;2023-12-14T02:34:55;6.20;99.90
15967;DHT22;15175;48.154;11.534;2023-12-14T02:40:59;6.20;99.90
15967;DHT22;15175;48.154;11.534;2023-12-14T02:47:00;6.20;99.90
15967;DHT22;15175;48.154;11.534;2023-12-14T02:53:03;6.20;99.90
15967;DHT22;15175;48.154;11.534;2023-12-14T02:59:06;6.20;99.90
15967;DHT22;15175;48.154;11.534;2023-12-14T03:05:08;6.10;99.90
15967;DHT22;15175;48.154;11.534;2023-12-14T03:11:20;6.10;99.90
15967;DHT22;15175;48.154;11.534;2023-12-14T03:17:34;6.10;99.90
15967;DHT22;15175;48.154;11.534;2023-12-14T03:23:36;6.10;99.90
15967;DHT22;15175;48.154;11.534;2023-12-14T03:29:38;6.00;99.90
15967;DHT22;15175;48.154;11.534;2023-12-14T03:35:42;6.00;99.90
15967;DHT22;15175;48.154;11.534;2023-12-14T03:41:44;6.00;99.90
15967;DHT22;15175;48.154;11.534;2023-12-14T03:47:47;6.00;99.90
15967;DHT22;15175;48.154;11.534;2023-12-14T03:53:50;6.00;99.90
15967;DHT22;15175;48.154;11.534;2023-12-14T03:59:52;6.00;99.90
15967;DHT22;15175;48.154;11.534;2023-12-14T04:05:54;6.00;99.90
15967;DHT22;15175;48.154;11.534;2023-12-14T04:11:58;6.00;99.90
15967;DHT22;15175;48.154;11.534;2023-12-14T04:18:00;6.00;99.90
15967;DHT22;15175;48.154;11.534;2023-12-14T04:24:02;5.90;99.90
15967;DHT22;15175;48.154;11.534;2023-12-14T04:30:07;5.90;99.90
15967;DHT22;15175;48.154;11.534;2023-12-14T04:36:11;5.90;99.90
15967;DHT22;15175;48.154;11.534;2023-12-14T04:42:13;5.90;99.90
15967;DHT22;15175;48.154;11.534;2023-12-14T04:48:17;5.90;99.90
15967;DHT22;15175;48.154;11.534;2023-12-14T04:54:19;5.90;99.90
15967;DHT22;15175;48.154;11.534;2023-12-14T05:00:21;5.90;99.90
15967;DHT22;15175;48.154;11.534;2023-12-14T05:06:25;5.80;99.90
15967;DHT22;15175;48.154;11.534;2023-12-14T05:12:27;5.80;99.90
15967;DHT22;15175;48.154;11.534;2023-12-14T05:18:30;5.80;99.90
15967;DHT22;15175;48.154;11.534;2023-12-14T05:24:33;5.80;99.90
15967;DHT22;15175;48.154;11.534;2023-12-14T05:30:36;5.80;99.90
15967;DHT22;15175;48.154;11.534;2023-12-14T05:36:38;5.80;99.90
15967;DHT22;15175;48.154;11.534;2023-12-14T05:42:41;5.80;99.90
15967;DHT22;15175;48.154;11.534;2023-12-14T05:48:43;5.80;99.90
15967;DHT22;15175;48.154;11.534;2023-12-14T05:54:46;5.70;99.90
15967;DHT22;15175;48.154;11.534;2023-12-14T06:00:49;5.80;99.90
15967;DHT22;15175;48.154;11.534;2023-12-14T06:06:51;5.70;99.90
15967;DHT22;15175;48.154;11.534;2023-12-14T06:12:53;5.70;99.90
15967;DHT22;15175;48.154;11.534;2023-12-14T06:18:57;5.70;99.90
15967;DHT22;15175;48.154;11.534;2023-12-14T06:24:59;5.80;99.90
15967;DHT22;15175;48.154;11.534;2023-12-14T06:31:01;5.80;99.90
15967;DHT22;15175;48.154;11.534;2023-12-14T06:37:05;5.80;99.90
15967;DHT22;15175;48.154;11.534;2023-12-14T06:43:07;5.80;99.90
15967;DHT22;15175;48.154;11.534;2023-12-14T06:49:09;5.80;99.90
15967;DHT22;15175;48.154;11.534;2023-12-14T06:55:13;5.80;99.90
15967;DHT22;15175;48.154;11.534;2023-12-14T07:01:17;5.80;99.90
15967;DHT22;15175;48.154;11.534;2023-12-14T07:07:19;5.90;99.90
15967;DHT22;15175;48.154;11.534;2023-12-14T07:13:23;5.90;99.90
15967;DHT22;15175;48.154;11.534;2023-12-14T07:19:25;5.90;99.90
15967;DHT22;15175;48.154;11.534;2023-12-14T07:25:27;5.90;99.90
15967;DHT22;15175;48.154;11.534;2023-12-14T07:31:31;6.00;99.90
15967;DHT22;15175;48.154;11.534;2023-12-14T07:37:34;6.00;99.90
15967;DHT22;15175;48.154;11.534;2023-12-14T07:43:37;6.00;99.90
15967;DHT22;15175;48.154;11.534;2023-12-14T07:49:40;6.00;99.90
15967;DHT22;15175;48.154;11.534;2023-12-14T07:55:43;6.00;99.90
15967;DHT22;15175;48.154;11.534;2023-12-14T08:01:45;6.10;99.90
15967;DHT22;15175;48.154;11.534;2023-12-14T08:07:48;6.20;99.90
15967;DHT22;15175;48.154;11.534;2023-12-14T08:13:53;6.20;99.90
15967;DHT22;15175;48.154;11.534;2023-12-14T08:19:55;6.30;99.90
15967;DHT22;15175;48.154;11.534;2023-12-14T08:25:58;6.20;99.90
15967;DHT22;15175;48.154;11.534;2023-12-14T08:32:01;6.30;99.90
15967;DHT22;15175;48.154;11.534;2023-12-14T08:38:03;6.30;99.90
15967;DHT22;15175;48.154;11.534;2023-12-14T08:44:08;6.30;99.90
15967;DHT22;15175;48.154;11.534;2023-12-14T08:50:10;6.40;99.90
15967;DHT22;15175;48.154;11.534;2023-12-14T08:56:13;6.40;99.90
15967;DHT22;15175;48.154;11.534;2023-12-14T09:02:17;6.40;99.90
15967;DHT22;15175;48.154;11.534;2023-12-14T09:08:19;6.50;99.90
15967;DHT22;15175;48.154;11.534;2023-12-14T09:14:21;6.50;99.90
15967;DHT22;15175;48.154;11.534;2023-12-14T09:20:25;6.60;99.90
15967;DHT22;15175;48.154;11.534;2023-12-14T09:26:27;6.60;99.90
15967;DHT22;15175;48.154;11.534;2023-12-14T09:32:29;6.60;99.90
15967;DHT22;15175;48.154;11.534;2023-12-14T09:38:33;6.60;99.90
15967;DHT22;15175;48.154;11.534;2023-12-14T09:44:37;6.60;99.90
15967;DHT22;15175;48.154;11.534;2023-12-14T09:50:40;6.60;99.90
15967;DHT22;15175;48.154;11.534;2023-12-14T09:56:47;6.60;99.90
15967;DHT22;15175;48.154;11.534;2023-12-14T10:02:50;6.60;99.90
15967;DHT22;15175;48.154;11.534;2023-12-14T10:08:55;6.70;99.90
15967;DHT22;15175;48.154;11.534;2023-12-14T10:15:01;6.70;99.90
15967;DHT22;15175;48.154;11.534;2023-12-14T10:21:07;6.70;99.90
15967;DHT22;15175;48.154;11.534;2023-12-14T10:27:09;6.70;99.90
15967;DHT22;15175;48.154;11.534;2023-12-14T10:33:13;6.70;99.90
15967;DHT22;15175;48.154;11.534;2023-12-14T10:39:17;6.70;99.90
15967;DHT22;15175;48.154;11.534;2023-12-14T10:45:21;6.70;99.90
15967;DHT22;15175;48.154;11.534;2023-12-14T10:51:27;6.80;99.90
15967;DHT22;15175;48.154;11.534;2023-12-14T10:57:30;6.80;99.90
15967;DHT22;15175;48.154;11.534;2023-12-14T11:03:33;6.80;99.90
15967;DHT22;15175;48.154;11.534;2023-12-14T11:09:37;6.90;99.90
15967;DHT22;15175;48.154;11.534;2023-12-14T11:15:40;7.00;99.90
15967;DHT22;15175;48.154;11.534;2023-12-14T11:21:47;7.00;99.90
15967;DHT22;15175;48.154;11.534;2023-12-14T11:27:50;7.10;99.90
15967;DHT22;15175;48.154;11.534;2023-12-14T11:33:53;7.10;99.90
15967;DHT22;15175;48.154;11.534;2023-12-14T11:39:56;7.10;99.90
15967;DHT22;15175;48.154;11.534;2023-12-14T11:46:00;7.20;99.90
15967;DHT22;15175;48.154;11.534;2023-12-14T11:52:02;7.30;99.90
15967;DHT22;15175;48.154;11.534;2023-12-14T11:58:06;7.40;99.90
15967;DHT22;15175;48.154;11.534;2023-12-14T12:04:10;7.40;99.90
15967;DHT22;15175;48.154;11.534;2023-12-14T12:10:13;7.40;99.90
15967;DHT22;15175;48.154;11.534;2023-12-14T12:16:15;7.50;99.90
15967;DHT22;15175;48.154;11.534;2023-12-14T12:22:19;7.50;99.90
15967;DHT22;15175;48.154;11.534;2023-12-14T12:28:21;7.50;99.90
15967;DHT22;15175;48.154;11.534;2023-12-14T12:34:23;7.50;99.90
15967;DHT22;15175;48.154;11.534;2023-12-14T12:40:27;7.50;99.90
15967;DHT22;15175;48.154;11.534;2023-12-14T12:46:32;7.50;99.90
15967;DHT22;15175;48.154;11.534;2023-12-14T12:52:34;7.50;99.90
15967;DHT22;15175;48.154;11.534;2023-12-14T12:58:39;7.50;99.90
15967;DHT22;15175;48.154;11.534;2023-12-14T13:04:41;7.50;99.90
15967;DHT22;15175;48.154;11.534;2023-12-14T13:10:43;7.50;99.90
15967;DHT22;15175;48.154;11.534;2023-12-14T13:16:47;7.50;99.90
15967;DHT22;15175;48.154;11.534;2023-12-14T13:22:50;7.50;99.90
15967;DHT22;15175;48.154;11.534;2023-12-14T13:28:54;7.50;99.90
15967;DHT22;15175;48.154;11.534;2023-12-14T13:34:58;7.50;99.90
15967;DHT22;15175;48.154;11.534;2023-12-14T13:41:00;7.50;99.90
15967;DHT22;15175;48.154;11.534;2023-12-14T13:47:04;7.50;99.90
15967;DHT22;15175;48.154;11.534;2023-12-14T13:53:07;7.50;99.90
15967;DHT22;15175;48.154;11.534;2023-12-14T13:59:10;7.50;99.90
15967;DHT22;15175;48.154;11.534;2023-12-14T14:05:12;7.60;99.90
15967;DHT22;15175;48.154;11.534;2023-12-14T14:11:16;7.60;99.90
15967;DHT22;15175;48.154;11.534;2023-12-14T14:17:18;7.60;99.90
15967;DHT22;15175;48.154;11.534;2023-12-14T14:23:20;7.60;99.90
15967;DHT22;15175;48.154;11.534;2023-12-14T14:29:24;7.60;99.90
15967;DHT22;15175;48.154;11.534;2023-12-14T14:35:26;7.50;99.90
15967;DHT22;15175;48.154;11.534;2023-12-14T14:41:29;7.40;99.90
15967;DHT22;15175;48.154;11.534;2023-12-14T14:47:33;7.40;99.90
15967;DHT22;15175;48.154;11.534;2023-12-14T14:53:36;7.40;99.90
15967;DHT22;15175;48.154;11.534;2023-12-14T14:59:39;7.40;99.90
15967;DHT22;15175;48.154;11.534;2023-12-14T15:05:43;7.40;99.90
15967;DHT22;15175;48.154;11.534;2023-12-14T15:11:45;7.30;99.90
15967;DHT22;15175;48.154;11.534;2023-12-14T15:17:47;7.30;99.90
15967;DHT22;15175;48.154;11.534;2023-12-14T15:23:52;7.30;99.90
15967;DHT22;15175;48.154;11.534;2023-12-14T15:29:54;7.30;99.90
15967;DHT22;15175;48.154;11.534;2023-12-14T15:35:57;7.30;99.90
15967;DHT22;15175;48.154;11.534;2023-12-14T15:42:01;7.30;99.90
15967;DHT22;15175;48.154;11.534;2023-12-14T15:48:03;7.30;99.90
15967;DHT22;15175;48.154;11.534;2023-12-14T15:54:05;7.20;99.90
15967;DHT22;15175;48.154;11.534;2023-12-14T16:00:10;7.30;99.90
15967;DHT22;15175;48.154;11.534;2023-12-14T16:06:13;7.20;99.90
15967;DHT22;15175;48.154;11.534;2023-12-14T16:12:16;7.20;99.90
15967;DHT22;15175;48.154;11.534;2023-12-14T16:18:20;7.20;99.90
15967;DHT22;15175;48.154;11.534;2023-12-14T16:24:23;7.10;99.90
15967;DHT22;15175;48.154;11.534;2023-12-14T16:30:25;7.10;99.90
15967;DHT22;15175;48.154;11.534;2023-12-14T16:36:35;7.10;99.90
15967;DHT22;15175;48.154;11.534;2023-12-14T16:42:37;7.00;99.90
15967;DHT22;15175;48.154;11.534;2023-12-14T16:48:40;7.00;99.90
15967;DHT22;15175;48.154;11.534;2023-12-14T16:54:43;6.90;99.90
15967;DHT22;15175;48.154;11.534;2023-12-14T17:00:46;6.90;99.90
15967;DHT22;15175;48.154;11.534;2023-12-14T17:06:48;6.90;99.90
15967;DHT22;15175;48.154;11.534;2023-12-14T17:12:51;6.80;99.90
15967;DHT22;15175;48.154;11.534;2023-12-14T17:18:54;6.80;99.90
15967;DHT22;15175;48.154;11.534;2023-12-14T17:24:56;6.80;99.90
15967;DHT22;15175;48.154;11.534;2023-12-14T17:30:59;6.80;99.90
15967;DHT22;15175;48.154;11.534;2023-12-14T17:37:03;6.80;99.90
15967;DHT22;15175;48.154;11.534;2023-12-14T17:43:06;6.70;99.90
15967;DHT22;15175;48.154;11.534;2023-12-14T17:49:09;6.70;99.90
15967;DHT22;15175;48.154;11.534;2023-12-14T17:55:12;6.70;99.90
15967;DHT22;15175;48.154;11.534;2023-12-14T18:01:14;6.70;99.90
15967;DHT22;15175;48.154;11.534;2023-12-14T18:07:20;6.70;99.90
15967;DHT22;15175;48.154;11.534;2023-12-14T18:13:22;6.70;99.90
15967;DHT22;15175;48.154;11.534;2023-12-14T18:19:26;6.70;99.90
15967;DHT22;15175;48.154;11.534;2023-12-14T18:25:31;6.60;99.90
15967;DHT22;15175;48.154;11.534;2023-12-14T18:31:33;6.60;99.90
15967;DHT22;15175;48.154;11.534;2023-12-14T18:37:36;6.60;99.90
15967;DHT22;15175;48.154;11.534;2023-12-14T18:43:39;6.60;99.90
15967;DHT22;15175;48.154;11.534;2023-12-14T18:49:41;6.50;99.90
15967;DHT22;15175;48.154;11.534;2023-12-14T18:55:44;6.40;99.90
15967;DHT22;15175;48.154;11.534;2023-12-14T19:01:49;6.40;99.90
15967;DHT22;15175;48.154;11.534;2023-12-14T19:07:51;6.40;99.90
15967;DHT22;15175;48.154;11.534;2023-12-14T19:13:53;6.30;99.90
15967;DHT22;15175;48.154;11.534;2023-12-14T19:19:56;6.30;99.90
15967;DHT22;15175;48.154;11.534;2023-12-14T19:25:59;6.30;99.90
15967;DHT22;15175;48.154;11.534;2023-12-14T19:32:01;6.30;99.90
15967;DHT22;15175;48.154;11.534;2023-12-14T19:38:05;6.20;99.90
15967;DHT22;15175;48.154;11.534;2023-12-14T19:44:07;6.30;99.90
15967;DHT22;15175;48.154;11.534;2023-12-14T19:50:10;6.30;99.90
15967;DHT22;15175;48.154;11.534;2023-12-14T19:56:13;6.30;99.90
15967;DHT22;15175;48.154;11.534;2023-12-14T20:02:16;6.30;99.90
15967;DHT22;15175;48.154;11.534;2023-12-14T20:08:18;6.30;99.90
15967;DHT22;15175;48.154;11.534;2023-12-14T20:14:24;6.30;99.90
15967;DHT22;15175;48.154;11.534;2023-12-14T20:20:26;6.30;99.90
15967;DHT22;15175;48.154;11.534;2023-12-14T20:26:28;6.30;99.90
15967;DHT22;15175;48.154;11.534;2023-12-14T20:32:33;6.30;99.90
15967;DHT22;15175;48.154;11.534;2023-12-14T20:38:35;6.20;99.90
15967;DHT22;15175;48.154;11.534;2023-12-14T20:44:37;6.30;99.90
15967;DHT22;15175;48.154;11.534;2023-12-14T20:50:41;6.20;99.90
15967;DHT22;15175;48.154;11.534;2023-12-14T20:56:43;6.20;99.90
15967;DHT22;15175;48.154;11.534;2023-12-14T21:02:45;6.10;99.90
15967;DHT22;15175;48.154;11.534;2023-12-14T21:08:49;6.00;99.90
15967;DHT22;15175;48.154;11.534;2023-12-14T21:14:51;6.00;99.90
15967;DHT22;15175;48.154;11.534;2023-12-14T21:20:54;6.00;99.90
15967;DHT22;15175;48.154;11.534;2023-12-14T21:26:58;6.00;99.90
15967;DHT22;15175;48.154;11.534;2023-12-14T21:33:18;5.90;99.90
15967;DHT22;15175;48.154;11.534;2023-12-14T21:39:20;5.90;99.90
15967;DHT22;15175;48.154;11.534;2023-12-14T21:45:24;5.90;99.90
15967;DHT22;15175;48.154;11.534;2023-12-14T21:51:26;5.80;99.90
15967;DHT22;15175;48.154;11.534;2023-12-14T21:57:28;5.80;99.90
15967;DHT22;15175;48.154;11.534;2023-12-14T22:03:32;5.80;99.90
15967;DHT22;15175;48.154;11.534;2023-12-14T22:09:34;5.80;99.90
15967;DHT22;15175;48.154;11.534;2023-12-14T22:15:36;5.80;99.90
15967;DHT22;15175;48.154;11.534;2023-12-14T22:21:40;5.80;99.90
15967;DHT22;15175;48.154;11.534;2023-12-14T22:27:42;5.70;99.90
15967;DHT22;15175;48.154;11.534;2023-12-14T22:33:44;5.80;99.90
15967;DHT22;15175;48.154;11.534;2023-12-14T22:39:48;5.70;99.90
15967;DHT22;15175;48.154;11.534;2023-12-14T22:45:50;5.80;99.90
15967;DHT22;15175;48.154;11.534;2023-12-14T22:51:52;5.80;99.90
15967;DHT22;15175;48.154;11.534;2023-12-14T22:57:56;5.80;99.90
15967;DHT22;15175;48.154;11.534;2023-12-14T23:03:59;5.80;99.90
15967;DHT22;15175;48.154;11.534;2023-12-14T23:10:01;5.90;99.90
15967;DHT22;15175;48.154;11.534;2023-12-14T23:16:06;5.80;99.90
15967;DHT22;15175;48.154;11.534;2023-12-14T23:22:08;5.80;99.90
15967;DHT22;15175;48.154;11.534;2023-12-14T23:28:10;5.90;99.90
15967;DHT22;15175;48.154;11.534;2023-12-14T23:34:13;5.90;99.90
15967;DHT22;15175;48.154;11.534;2023-12-14T23:40:15;5.80;99.90
15967;DHT22;15175;48.154;11.534;2023-12-14T23:46:18;5.80;99.90
15967;DHT22;15175;48.154;11.534;2023-12-14T23:52:21;5.70;99.90
15967;DHT22;15175;48.154;11.534;2023-12-14T23:58:23;5.70;99.90
